Time;durP1;ratioP1;P1;durP2;ratioP2;P2;SDS_P1;SDS_P2;PMS_P1;PMS_P2;Temp;Humidity;BMP_temperature;BMP_pressure;BME280_temperature;BME280_humidity;BME280_pressure;Samples;Min_cycle;Max_cycle;Signal;HPM_P1;HPM_P2
2021/12/17 00:00:59;;;;;;;13.43;11.90;;;5.40;94.90;;;;;;5002701;28;20057;-78
2021/12/17 00:03:40;;;;;;;14.55;12.68;;;5.40;94.90;;;;;;5001660;28;20049;-77
2021/12/17 00:06:19;;;;;;;14.68;12.35;;;5.40;94.90;;;;;;5004110;28;20665;-77
2021/12/17 00:08:49;;;;;;;15.13;13.52;;;5.40;94.90;;;;;;4998032;28;20054;-78
2021/12/17 00:11:16;;;;;;;14.27;12.63;;;5.40;94.90;;;;;;5002017;28;20046;-78
2021/12/17 00:13:46;;;;;;;15.45;12.75;;;5.40;94.90;;;;;;5004336;28;20049;-78
2021/12/17 00:16:17;;;;;;;14.32;12.80;;;5.40;94.90;;;;;;5003339;28;20128;-78
2021/12/17 00:18:59;;;;;;;14.63;12.95;;;5.40;94.90;;;;;;5003757;28;20420;-76
2021/12/17 00:49:09;;;;;;;17.33;14.50;;;5.40;95.00;;;;;;4954598;28;20129;-77
2021/12/17 00:51:55;;;;;;;18.02;13.63;;;5.40;95.00;;;;;;4956350;28;20050;-79
2021/12/17 00:54:30;;;;;;;17.15;13.93;;;5.30;95.00;;;;;;4981839;28;20053;-78
2021/12/17 00:57:00;;;;;;;16.75;14.27;;;5.30;95.10;;;;;;4999166;28;20149;-77
2021/12/17 00:59:27;;;;;;;16.20;14.07;;;5.40;95.00;;;;;;5003874;28;20116;-77
2021/12/17 01:01:59;;;;;;;14.85;13.23;;;5.40;95.00;;;;;;5002288;28;20049;-77
2021/12/17 01:04:26;;;;;;;16.77;13.80;;;5.40;95.10;;;;;;5004213;28;20517;-78
2021/12/17 01:06:53;;;;;;;16.50;14.18;;;5.40;95.10;;;;;;5015046;28;20053;-79
2021/12/17 01:09:23;;;;;;;15.82;13.82;;;5.40;95.10;;;;;;5003291;28;20054;-77
2021/12/17 01:11:50;;;;;;;16.65;13.57;;;5.40;95.10;;;;;;5002075;28;20054;-78
2021/12/17 01:14:17;;;;;;;15.82;13.80;;;5.40;95.10;;;;;;4999084;28;20510;-78
2021/12/17 01:16:44;;;;;;;16.95;13.20;;;5.40;95.10;;;;;;5001029;28;20084;-78
2021/12/17 01:19:21;;;;;;;17.13;13.88;;;5.40;95.10;;;;;;5002666;28;20057;-78
2021/12/17 01:22:01;;;;;;;15.70;14.10;;;5.40;95.10;;;;;;5006969;28;20056;-78
2021/12/17 01:24:37;;;;;;;16.27;14.02;;;5.40;95.10;;;;;;5005592;28;20416;-78
2021/12/17 01:35:23;;;;;;;15.68;13.98;;;5.40;95.10;;;;;;5000669;28;20134;-78
2021/12/17 01:43:29;;;;;;;18.10;14.52;;;5.40;95.10;;;;;;4999694;28;20042;-77
2021/12/17 01:45:57;;;;;;;16.30;13.27;;;5.40;95.10;;;;;;5007683;28;20068;-77
2021/12/17 01:48:31;;;;;;;16.88;14.00;;;5.40;95.10;;;;;;5000610;28;20504;-78
2021/12/17 01:56:54;;;;;;;16.17;13.20;;;5.40;95.10;;;;;;4999272;28;20052;-77
2021/12/17 01:59:23;;;;;;;17.33;14.05;;;5.40;95.10;;;;;;5004424;28;20046;-78
2021/12/17 02:01:53;;;;;;;16.58;14.10;;;5.40;95.10;;;;;;4998970;28;20049;-78
2021/12/17 02:04:20;;;;;;;16.80;13.30;;;5.40;95.10;;;;;;5000376;28;20139;-78
2021/12/17 02:06:49;;;;;;;16.33;13.68;;;5.40;95.10;;;;;;5011705;28;20060;-78
2021/12/17 02:09:51;;;;;;;18.55;13.82;;;5.40;95.10;;;;;;5005312;28;20060;-78
2021/12/17 02:12:43;;;;;;;17.52;13.60;;;5.40;95.10;;;;;;5003949;28;20052;-77
2021/12/17 02:21:10;;;;;;;16.43;13.43;;;5.40;95.10;;;;;;5004810;28;20135;-78
2021/12/17 02:29:28;;;;;;;15.77;12.95;;;5.40;95.10;;;;;;5005969;28;20076;-77
2021/12/17 02:31:59;;;;;;;16.85;13.15;;;5.40;95.10;;;;;;5004629;28;20834;-78
2021/12/17 02:34:41;;;;;;;15.48;12.43;;;5.40;95.10;;;;;;5003520;28;20058;-78
2021/12/17 02:37:13;;;;;;;16.80;13.77;;;5.40;95.10;;;;;;5003311;28;20053;-78
2021/12/17 02:39:59;;;;;;;15.77;12.43;;;5.40;95.10;;;;;;5005493;28;20053;-78
2021/12/17 02:42:48;;;;;;;14.90;12.73;;;5.40;95.10;;;;;;4999749;28;20050;-77
2021/12/17 02:45:35;;;;;;;15.98;13.18;;;5.40;95.10;;;;;;5004936;28;20042;-77
2021/12/17 02:48:05;;;;;;;15.40;13.10;;;5.40;95.10;;;;;;5003557;28;20061;-77
2021/12/17 02:50:33;;;;;;;15.95;13.77;;;5.40;95.10;;;;;;5005526;28;20059;-78
2021/12/17 02:53:07;;;;;;;17.50;13.13;;;5.40;95.10;;;;;;5003714;28;20057;-78
2021/12/17 02:55:35;;;;;;;16.65;13.23;;;5.40;95.10;;;;;;5003694;28;20201;-77
2021/12/17 02:58:03;;;;;;;15.30;12.68;;;5.50;95.10;;;;;;5002628;28;20054;-78
2021/12/17 03:00:30;;;;;;;16.35;13.55;;;5.40;95.10;;;;;;5005146;28;20784;-78
2021/12/17 03:02:57;;;;;;;13.52;11.70;;;5.40;95.10;;;;;;5002681;28;20050;-78
2021/12/17 03:05:26;;;;;;;14.38;12.68;;;5.40;95.10;;;;;;5006064;28;20056;-77
2021/12/17 03:07:53;;;;;;;14.05;12.43;;;5.40;95.10;;;;;;5004427;28;20142;-78
2021/12/17 03:10:22;;;;;;;16.05;12.57;;;5.40;95.10;;;;;;5005723;28;20049;-78
2021/12/17 03:12:51;;;;;;;14.15;12.43;;;5.40;95.10;;;;;;5007641;28;20572;-78
2021/12/17 03:15:26;;;;;;;15.57;12.65;;;5.40;95.10;;;;;;4996962;28;20057;-79
2021/12/17 03:18:35;;;;;;;15.38;12.68;;;5.40;95.10;;;;;;5003351;28;20173;-78
2021/12/17 03:23:44;;;;;;;15.05;13.00;;;5.50;95.10;;;;;;5013235;28;20054;-78
2021/12/17 03:26:14;;;;;;;14.50;12.23;;;5.50;95.10;;;;;;5003682;28;20050;-77
2021/12/17 03:28:43;;;;;;;15.40;12.85;;;5.50;95.10;;;;;;4996292;28;20054;-77
2021/12/17 03:31:12;;;;;;;16.40;13.23;;;5.50;95.10;;;;;;5012731;28;20060;-78
2021/12/17 03:33:43;;;;;;;16.75;13.52;;;5.40;95.10;;;;;;5008118;28;20050;-77
2021/12/17 03:36:11;;;;;;;15.55;12.90;;;5.50;95.10;;;;;;5001086;28;20104;-77
2021/12/17 03:38:39;;;;;;;14.27;12.48;;;5.40;95.10;;;;;;5003015;28;20136;-77
2021/12/17 03:41:16;;;;;;;14.45;12.85;;;5.40;95.10;;;;;;5002841;28;20042;-79
2021/12/17 03:43:44;;;;;;;15.30;13.20;;;5.50;95.10;;;;;;5002359;28;20060;-77
2021/12/17 03:46:11;;;;;;;15.70;13.02;;;5.40;95.10;;;;;;5000793;28;20499;-76
2021/12/17 03:48:40;;;;;;;15.38;13.43;;;5.50;95.10;;;;;;4999732;28;20100;-77
2021/12/17 03:51:12;;;;;;;15.95;13.10;;;5.40;95.10;;;;;;5001814;28;20089;-77
2021/12/17 03:53:39;;;;;;;15.13;12.55;;;5.40;95.10;;;;;;5003049;28;20057;-78
2021/12/17 03:56:07;;;;;;;14.57;12.40;;;5.40;95.10;;;;;;5001094;28;20058;-77
2021/12/17 03:58:33;;;;;;;14.52;12.57;;;5.50;95.10;;;;;;4999835;28;20054;-78
2021/12/17 04:01:02;;;;;;;14.27;12.05;;;5.50;95.10;;;;;;5002582;28;20441;-77
2021/12/17 04:03:28;;;;;;;15.40;12.48;;;5.50;95.20;;;;;;5006968;28;20057;-78
2021/12/17 04:05:55;;;;;;;15.50;13.18;;;5.50;95.10;;;;;;5006829;28;20068;-78
2021/12/17 04:08:22;;;;;;;15.57;12.82;;;5.50;95.10;;;;;;5005412;28;20053;-78
2021/12/17 04:10:51;;;;;;;14.55;12.68;;;5.50;95.10;;;;;;5002151;28;20106;-77
2021/12/17 04:13:30;;;;;;;15.23;12.73;;;5.50;95.20;;;;;;4999220;28;20842;-78
2021/12/17 04:16:00;;;;;;;14.40;11.93;;;5.50;95.20;;;;;;5002482;28;20057;-78
2021/12/17 04:18:29;;;;;;;15.75;13.15;;;5.50;95.20;;;;;;5003968;28;20052;-78
2021/12/17 04:20:56;;;;;;;15.43;12.65;;;5.50;95.20;;;;;;5007255;28;20056;-77
2021/12/17 04:23:23;;;;;;;15.77;12.98;;;5.50;95.50;;;;;;5012527;28;20513;-78
2021/12/17 04:25:50;;;;;;;15.13;12.65;;;5.50;95.20;;;;;;5002242;28;20061;-78
2021/12/17 04:28:18;;;;;;;15.35;13.13;;;5.50;95.20;;;;;;5001696;28;20435;-77
2021/12/17 04:30:45;;;;;;;14.55;12.68;;;5.50;95.20;;;;;;5002968;28;20081;-78
2021/12/17 04:33:13;;;;;;;15.65;13.32;;;5.50;95.20;;;;;;5000133;28;20046;-78
2021/12/17 04:35:42;;;;;;;15.50;13.23;;;5.50;95.20;;;;;;5014675;28;20087;-78
2021/12/17 04:38:10;;;;;;;16.50;12.68;;;5.50;95.20;;;;;;5007636;28;20053;-78
2021/12/17 04:40:40;;;;;;;15.45;12.13;;;5.50;95.20;;;;;;5004227;28;20134;-78
2021/12/17 04:43:16;;;;;;;16.92;13.60;;;5.50;95.20;;;;;;4999729;28;20053;-78
2021/12/17 04:45:50;;;;;;;16.27;13.43;;;5.50;95.20;;;;;;5002775;28;20141;-77
2021/12/17 04:59:15;;;;;;;14.55;12.77;;;5.50;95.20;;;;;;5003367;28;20422;-77
2021/12/17 05:01:42;;;;;;;15.00;13.05;;;5.50;95.20;;;;;;4997002;28;20056;-77
2021/12/17 05:04:09;;;;;;;15.93;13.13;;;5.50;95.20;;;;;;5006689;28;20101;-77
2021/12/17 05:06:37;;;;;;;17.40;13.45;;;5.50;95.20;;;;;;5008924;28;20056;-77
2021/12/17 05:09:10;;;;;;;15.70;13.20;;;5.50;95.20;;;;;;5005603;28;20053;-78
2021/12/17 05:19:59;;;;;;;17.42;14.02;;;5.50;95.20;;;;;;5008207;28;20056;-76
2021/12/17 05:22:28;;;;;;;15.60;13.23;;;5.50;95.20;;;;;;4998659;28;20131;-77
2021/12/17 05:24:55;;;;;;;16.33;12.95;;;5.50;95.20;;;;;;5003828;28;20081;-77
2021/12/17 05:27:22;;;;;;;14.70;13.13;;;5.50;95.20;;;;;;5001179;28;20060;-78
2021/12/17 05:29:49;;;;;;;14.68;12.73;;;5.60;95.20;;;;;;5001801;28;20061;-78
2021/12/17 05:32:16;;;;;;;16.33;12.90;;;5.50;95.20;;;;;;5001164;28;21214;-78
2021/12/17 05:34:43;;;;;;;16.27;13.55;;;5.50;95.20;;;;;;5001396;28;20651;-78
2021/12/17 05:37:09;;;;;;;16.17;13.02;;;5.60;95.30;;;;;;5006211;28;20065;-78
2021/12/17 05:39:37;;;;;;;16.02;13.50;;;5.50;95.20;;;;;;5001558;28;20057;-78
2021/12/17 05:42:05;;;;;;;14.90;12.88;;;5.60;95.20;;;;;;5002386;28;20077;-78
2021/12/17 05:44:32;;;;;;;15.82;12.63;;;5.60;95.30;;;;;;5007368;28;20052;-78
2021/12/17 05:46:59;;;;;;;14.77;12.32;;;5.60;95.30;;;;;;5003149;28;20049;-76
2021/12/17 05:49:27;;;;;;;14.68;13.00;;;5.60;95.20;;;;;;5003377;28;20069;-77
2021/12/17 05:51:55;;;;;;;14.52;12.10;;;5.60;95.20;;;;;;5008400;28;20050;-78
2021/12/17 05:54:22;;;;;;;16.38;12.95;;;5.50;95.20;;;;;;5001307;28;20131;-77
2021/12/17 05:56:52;;;;;;;15.20;13.07;;;5.60;95.30;;;;;;5003232;28;20071;-78
2021/12/17 05:59:18;;;;;;;16.63;13.43;;;5.60;95.20;;;;;;5007801;28;20101;-77
2021/12/17 06:01:45;;;;;;;15.70;13.23;;;5.60;95.20;;;;;;5003829;28;20717;-78
2021/12/17 06:04:12;;;;;;;15.73;13.27;;;5.60;95.20;;;;;;5001849;28;20105;-79
2021/12/17 06:06:41;;;;;;;15.50;12.80;;;5.60;95.20;;;;;;5000491;28;20061;-78
2021/12/17 06:09:09;;;;;;;15.65;13.02;;;5.60;95.30;;;;;;5007701;28;20688;-78
2021/12/17 06:11:37;;;;;;;16.05;13.05;;;5.50;95.20;;;;;;5005093;28;20054;-78
2021/12/17 06:14:06;;;;;;;15.27;12.35;;;5.60;95.30;;;;;;5004415;28;20626;-77
2021/12/17 06:16:34;;;;;;;15.55;12.70;;;5.60;95.30;;;;;;5006457;28;20141;-78
2021/12/17 06:19:01;;;;;;;16.15;12.80;;;5.60;95.30;;;;;;5005005;28;20054;-77
2021/12/17 06:21:28;;;;;;;17.10;13.32;;;5.60;95.30;;;;;;5013623;28;20045;-78
2021/12/17 06:23:55;;;;;;;16.25;13.18;;;5.60;95.30;;;;;;5006439;28;20058;-78
2021/12/17 06:26:22;;;;;;;16.00;12.82;;;5.60;95.30;;;;;;5010811;28;20050;-78
2021/12/17 06:28:50;;;;;;;16.15;12.90;;;5.60;95.30;;;;;;5005622;28;20050;-68
2021/12/17 06:31:19;;;;;;;15.63;13.27;;;5.60;95.30;;;;;;5010491;28;20057;-68
2021/12/17 06:33:46;;;;;;;14.23;11.98;;;5.50;95.30;;;;;;5010568;28;20356;-68
2021/12/17 06:36:13;;;;;;;14.55;12.23;;;5.60;95.30;;;;;;5003661;28;20053;-68
2021/12/17 06:38:40;;;;;;;15.77;12.65;;;5.50;95.30;;;;;;5003788;28;20100;-69
2021/12/17 06:41:07;;;;;;;14.10;12.60;;;5.60;95.30;;;;;;5005360;28;20049;-69
2021/12/17 06:43:38;;;;;;;16.02;13.30;;;5.60;95.30;;;;;;4999800;28;20054;-68
2021/12/17 06:46:18;;;;;;;15.57;13.18;;;5.60;95.30;;;;;;5006107;28;20140;-68
2021/12/17 06:48:48;;;;;;;14.48;12.75;;;5.60;95.30;;;;;;5001885;28;20153;-69
2021/12/17 06:59:43;;;;;;;17.08;13.48;;;5.60;95.30;;;;;;5014371;28;20136;-68
2021/12/17 07:08:37;;;;;;;17.92;13.60;;;5.60;95.30;;;;;;4998982;28;20108;-76
2021/12/17 07:10:41;;;;;;;14.98;12.63;;;5.60;95.30;;;;;;5004116;28;20049;-77
2021/12/17 07:21:39;;;;;;;15.65;12.73;;;5.60;95.70;;;;;;4999234;28;20052;-76
2021/12/17 07:32:32;;;;;;;14.23;12.10;;;5.60;95.40;;;;;;5007916;28;20057;-76
2021/12/17 07:40:29;;;;;;;13.93;11.90;;;5.60;95.30;;;;;;5004736;28;20779;-76
2021/12/17 07:42:55;;;;;;;13.73;12.00;;;5.60;95.30;;;;;;5005236;28;20042;-76
2021/12/17 07:45:22;;;;;;;13.80;12.20;;;5.60;95.30;;;;;;5002592;28;20104;-76
2021/12/17 07:47:49;;;;;;;15.05;11.57;;;5.60;95.40;;;;;;4999441;28;20509;-76
2021/12/17 07:50:16;;;;;;;14.25;12.70;;;5.60;95.40;;;;;;5000355;28;20053;-76
2021/12/17 07:52:44;;;;;;;14.25;11.93;;;5.60;95.30;;;;;;5002966;28;20050;-75
2021/12/17 07:55:10;;;;;;;14.90;12.27;;;5.60;95.30;;;;;;5002876;28;20054;-76
2021/12/17 07:57:37;;;;;;;13.32;11.93;;;5.60;95.30;;;;;;5000044;28;20068;-76
2021/12/17 08:00:06;;;;;;;13.50;10.88;;;5.60;95.30;;;;;;5011582;28;20061;-76
2021/12/17 08:02:32;;;;;;;14.77;11.50;;;5.60;95.30;;;;;;5002496;28;20042;-76
2021/12/17 08:04:59;;;;;;;13.18;11.50;;;5.60;95.30;;;;;;5004049;28;20076;-75
2021/12/17 08:07:26;;;;;;;12.85;11.32;;;5.60;95.30;;;;;;5001500;28;20577;-76
2021/12/17 08:09:54;;;;;;;12.85;11.43;;;5.60;95.30;;;;;;5009928;28;20053;-76
2021/12/17 08:12:20;;;;;;;12.25;10.95;;;5.60;95.30;;;;;;5003636;28;20049;-76
2021/12/17 08:14:47;;;;;;;12.52;10.40;;;5.60;95.30;;;;;;4997854;28;20246;-76
2021/12/17 08:17:33;;;;;;;13.15;10.95;;;5.60;95.30;;;;;;5006976;28;20058;-76
2021/12/17 08:25:45;;;;;;;12.40;11.10;;;5.60;95.30;;;;;;5002535;28;20496;-76
2021/12/17 08:28:13;;;;;;;12.75;11.45;;;5.60;95.30;;;;;;5000934;28;20104;-76
2021/12/17 08:30:40;;;;;;;11.65;10.45;;;5.60;95.30;;;;;;5001900;28;20046;-76
2021/12/17 08:33:07;;;;;;;11.68;10.48;;;5.60;95.30;;;;;;5002000;28;20060;-76
2021/12/17 08:35:35;;;;;;;12.30;10.95;;;5.60;95.30;;;;;;5000533;28;20666;-76
2021/12/17 08:38:04;;;;;;;11.93;10.52;;;5.60;95.30;;;;;;5005862;28;20057;-76
2021/12/17 08:40:34;;;;;;;12.00;10.50;;;5.60;95.30;;;;;;5001338;28;20053;-76
2021/12/17 08:43:01;;;;;;;11.25;10.05;;;5.50;95.30;;;;;;5002960;28;20764;-75
2021/12/17 08:45:28;;;;;;;11.82;10.57;;;5.60;95.30;;;;;;5000179;28;20052;-75
2021/12/17 08:47:55;;;;;;;10.52;9.43;;;5.50;95.30;;;;;;5001103;28;20761;-76
2021/12/17 08:50:22;;;;;;;11.38;9.82;;;5.50;95.30;;;;;;5001500;28;20054;-76
2021/12/17 08:52:49;;;;;;;11.18;10.07;;;5.50;95.30;;;;;;5006875;28;20053;-76
2021/12/17 08:55:16;;;;;;;12.18;10.88;;;5.50;95.30;;;;;;5001180;28;20638;-76
2021/12/17 08:57:44;;;;;;;12.10;10.25;;;5.50;95.30;;;;;;5002254;28;20731;-76
2021/12/17 09:00:13;;;;;;;11.18;9.27;;;5.50;95.30;;;;;;4999484;28;20088;-75
2021/12/17 09:02:41;;;;;;;10.60;9.50;;;5.50;95.30;;;;;;5009885;28;20041;-76
2021/12/17 09:05:10;;;;;;;11.60;10.38;;;5.50;95.30;;;;;;5002876;28;20728;-76
2021/12/17 09:07:37;;;;;;;11.35;10.15;;;5.50;95.30;;;;;;5008944;28;20104;-76
2021/12/17 09:10:06;;;;;;;10.77;9.68;;;5.40;95.30;;;;;;5004038;28;20054;-76
2021/12/17 09:12:32;;;;;;;11.38;9.75;;;5.40;95.30;;;;;;5001313;28;20077;-76
2021/12/17 09:15:01;;;;;;;11.27;10.13;;;5.40;95.30;;;;;;5002464;28;20053;-75
2021/12/17 09:17:27;;;;;;;11.07;9.98;;;5.40;95.30;;;;;;5004489;28;20057;-76
2021/12/17 09:19:54;;;;;;;10.93;9.82;;;5.40;95.30;;;;;;5015363;28;20131;-76
2021/12/17 09:22:22;;;;;;;10.77;9.75;;;5.40;95.30;;;;;;5012489;28;20049;-76
2021/12/17 09:24:49;;;;;;;10.57;9.40;;;5.40;95.30;;;;;;5006974;28;20306;-75
2021/12/17 09:27:16;;;;;;;11.98;10.30;;;5.30;95.30;;;;;;5002946;28;20065;-75
2021/12/17 09:29:43;;;;;;;10.55;9.45;;;5.40;95.30;;;;;;5006724;28;20057;-76
2021/12/17 09:32:11;;;;;;;10.40;9.40;;;5.40;95.30;;;;;;5003376;28;20767;-76
2021/12/17 09:34:37;;;;;;;10.88;9.65;;;5.30;95.30;;;;;;5007859;28;20072;-77
2021/12/17 09:37:06;;;;;;;10.80;9.48;;;5.30;95.30;;;;;;5003384;28;20516;-76
2021/12/17 09:39:33;;;;;;;11.15;9.95;;;5.30;95.30;;;;;;5001506;28;20053;-76
2021/12/17 09:41:59;;;;;;;10.65;9.55;;;5.30;95.30;;;;;;5003650;28;20050;-76
2021/12/17 09:44:26;;;;;;;10.68;9.57;;;5.30;95.30;;;;;;5005020;28;20071;-76
2021/12/17 09:46:57;;;;;;;10.95;9.77;;;5.30;95.30;;;;;;4999289;28;20721;-76
2021/12/17 09:49:25;;;;;;;10.90;9.80;;;5.30;95.30;;;;;;4999833;28;20049;-76
2021/12/17 09:51:52;;;;;;;10.07;9.07;;;5.30;95.30;;;;;;5004308;28;20848;-76
2021/12/17 09:54:20;;;;;;;10.48;9.43;;;5.30;95.30;;;;;;4999059;28;20081;-76
2021/12/17 09:56:47;;;;;;;10.45;9.35;;;5.30;95.30;;;;;;4997525;28;20580;-77
2021/12/17 09:59:14;;;;;;;11.07;9.88;;;5.30;95.30;;;;;;5010540;28;20789;-76
2021/12/17 10:01:42;;;;;;;10.63;9.52;;;5.30;95.30;;;;;;5001520;28;20061;-75
2021/12/17 10:04:14;;;;;;;10.07;8.90;;;5.30;95.30;;;;;;4999804;28;20054;-76
2021/12/17 10:06:43;;;;;;;10.43;9.32;;;5.30;95.20;;;;;;5005001;28;21098;-76
2021/12/17 10:09:10;;;;;;;9.73;8.57;;;5.30;95.20;;;;;;5001937;28;20060;-76
2021/12/17 10:11:38;;;;;;;10.48;9.48;;;5.30;95.30;;;;;;5001591;28;20085;-77
2021/12/17 10:14:17;;;;;;;10.60;9.52;;;5.30;95.20;;;;;;5002922;28;20045;-76
2021/12/17 10:16:44;;;;;;;10.68;9.57;;;5.30;95.20;;;;;;4999842;28;20142;-76
2021/12/17 10:19:11;;;;;;;9.70;8.70;;;5.30;95.20;;;;;;5003520;28;20062;-77
2021/12/17 10:21:47;;;;;;;10.05;9.05;;;5.30;95.20;;;;;;5001695;28;20053;-76
2021/12/17 10:24:24;;;;;;;9.43;8.18;;;5.30;95.20;;;;;;5001062;28;20049;-76
2021/12/17 10:26:51;;;;;;;10.25;9.25;;;5.30;95.30;;;;;;5001359;28;20053;-76
2021/12/17 10:29:21;;;;;;;10.23;9.13;;;5.30;95.30;;;;;;5001421;28;20103;-76
2021/12/17 10:31:56;;;;;;;10.15;8.98;;;5.30;95.30;;;;;;5000725;28;20670;-76
2021/12/17 10:34:24;;;;;;;10.05;9.05;;;5.30;95.30;;;;;;5004347;28;20497;-76
2021/12/17 10:36:53;;;;;;;11.23;8.95;;;5.30;95.30;;;;;;5005364;28;20058;-76
2021/12/17 10:39:24;;;;;;;10.93;9.73;;;5.30;95.30;;;;;;4999418;28;20054;-77
2021/12/17 10:41:51;;;;;;;10.05;9.05;;;5.30;95.30;;;;;;5012119;28;20167;-76
2021/12/17 10:44:20;;;;;;;10.00;9.00;;;5.30;95.30;;;;;;5011532;28;20524;-76
2021/12/17 10:47:06;;;;;;;10.18;8.88;;;5.30;95.30;;;;;;5001227;28;20057;-77
2021/12/17 10:49:33;;;;;;;10.30;9.25;;;5.30;95.30;;;;;;5003698;28;20143;-76
2021/12/17 10:52:14;;;;;;;9.70;8.70;;;5.40;95.30;;;;;;5000519;28;20053;-74
2021/12/17 10:54:41;;;;;;;10.73;9.63;;;5.30;95.30;;;;;;5003189;28;20636;-76
2021/12/17 10:57:09;;;;;;;9.77;8.85;;;5.30;95.30;;;;;;5001963;28;20053;-75
2021/12/17 10:59:37;;;;;;;9.65;8.65;;;5.40;95.30;;;;;;5008049;28;20382;-76
2021/12/17 11:02:10;;;;;;;9.88;8.88;;;5.40;95.30;;;;;;5007019;28;20058;-77
2021/12/17 11:04:39;;;;;;;10.13;9.07;;;5.40;95.30;;;;;;5000764;28;20056;-76
2021/12/17 11:07:10;;;;;;;10.73;9.55;;;5.40;95.30;;;;;;5012878;28;20053;-76
2021/12/17 11:09:39;;;;;;;10.70;9.60;;;5.40;95.30;;;;;;5010964;28;20050;-77
2021/12/17 11:12:29;;;;;;;10.82;9.30;;;5.40;95.30;;;;;;5003674;28;20502;-76
2021/12/17 11:15:07;;;;;;;10.65;9.55;;;5.40;95.30;;;;;;5001392;28;20092;-76
2021/12/17 11:17:34;;;;;;;11.02;9.60;;;5.50;95.30;;;;;;5002421;28;20111;-76
2021/12/17 11:20:05;;;;;;;11.55;10.20;;;5.50;95.30;;;;;;5009209;28;20049;-75
2021/12/17 11:22:33;;;;;;;10.90;9.75;;;5.50;95.20;;;;;;5006933;28;20165;-76
2021/12/17 11:25:01;;;;;;;10.27;9.18;;;5.50;95.20;;;;;;5003727;28;20045;-75
2021/12/17 11:27:28;;;;;;;11.38;9.90;;;5.50;95.20;;;;;;5000995;28;20053;-76
2021/12/17 11:29:55;;;;;;;11.15;9.88;;;5.60;95.20;;;;;;5001879;28;20044;-76
2021/12/17 11:32:23;;;;;;;10.48;9.43;;;5.60;95.20;;;;;;5003214;28;20053;-76
2021/12/17 11:34:50;;;;;;;10.85;9.73;;;5.60;95.20;;;;;;5001897;28;20145;-77
2021/12/17 11:37:19;;;;;;;11.00;9.40;;;5.60;95.30;;;;;;5006954;28;20057;-76
2021/12/17 11:39:52;;;;;;;10.65;9.55;;;5.60;95.10;;;;;;4995461;28;20054;-75
2021/12/17 11:42:30;;;;;;;10.75;9.65;;;5.60;95.10;;;;;;5008181;28;20065;-76
2021/12/17 11:47:43;;;;;;;10.47;9.20;;;5.60;95.10;;;;;;4991066;28;20135;-76
2021/12/17 11:50:14;;;;;;;10.88;9.70;;;5.70;95.00;;;;;;4999148;28;20094;-79
2021/12/17 11:52:44;;;;;;;10.77;9.68;;;5.70;95.00;;;;;;5014210;22;20193;-76
2021/12/17 11:55:26;;;;;;;11.73;9.45;;;5.70;95.00;;;;;;5001766;28;20049;-76
2021/12/17 11:58:00;;;;;;;11.02;9.88;;;5.70;95.00;;;;;;4997737;28;20644;-76
2021/12/17 12:00:31;;;;;;;11.38;9.70;;;5.70;95.00;;;;;;4997099;28;20081;-76
2021/12/17 12:03:15;;;;;;;11.48;10.25;;;5.70;95.00;;;;;;4997743;28;20139;-76
2021/12/17 12:05:44;;;;;;;11.75;9.93;;;5.80;95.00;;;;;;4996943;28;20092;-76
2021/12/17 12:08:33;;;;;;;11.50;10.25;;;5.80;95.00;;;;;;5003601;28;20053;-76
2021/12/17 12:11:10;;;;;;;10.75;9.60;;;5.80;95.00;;;;;;5001878;28;20701;-76
2021/12/17 12:13:38;;;;;;;12.30;10.55;;;5.90;95.00;;;;;;5003945;28;20422;-75
2021/12/17 12:16:06;;;;;;;11.73;10.30;;;5.90;95.00;;;;;;4993093;28;20050;-76
2021/12/17 12:18:42;;;;;;;10.43;9.32;;;5.90;95.00;;;;;;4999834;28;20057;-76
2021/12/17 12:21:10;;;;;;;10.70;9.57;;;5.90;94.90;;;;;;4997390;28;20049;-76
2021/12/17 12:23:49;;;;;;;10.60;9.50;;;6.00;94.80;;;;;;5001656;28;20042;-76
2021/12/17 12:26:26;;;;;;;11.80;10.50;;;6.00;94.80;;;;;;5003430;28;20061;-76
2021/12/17 12:29:06;;;;;;;10.23;9.13;;;6.00;94.70;;;;;;5002015;28;20065;-77
2021/12/17 12:31:45;;;;;;;10.95;9.85;;;6.10;94.70;;;;;;5001237;28;20065;-76
2021/12/17 12:34:13;;;;;;;11.88;10.43;;;6.00;94.70;;;;;;4999539;28;20085;-76
2021/12/17 12:37:03;;;;;;;11.15;9.95;;;6.10;94.70;;;;;;4996684;28;20060;-76
2021/12/17 12:39:33;;;;;;;11.68;9.80;;;6.10;94.60;;;;;;4996373;28;20434;-76
2021/12/17 12:42:07;;;;;;;9.95;8.95;;;6.10;94.60;;;;;;4997150;28;20050;-76
2021/12/17 12:45:08;;;;;;;11.10;9.82;;;6.10;94.60;;;;;;4996796;28;20119;-76
2021/12/17 12:47:49;;;;;;;10.75;9.32;;;6.10;94.60;;;;;;4998192;28;20058;-76
2021/12/17 12:50:18;;;;;;;12.52;9.75;;;6.10;94.60;;;;;;4998095;28;20065;-76
2021/12/17 12:52:46;;;;;;;10.23;9.23;;;6.10;94.60;;;;;;4997073;28;20725;-75
2021/12/17 12:55:17;;;;;;;10.68;9.57;;;6.10;94.60;;;;;;4996507;28;20041;-76
2021/12/17 12:57:47;;;;;;;11.52;10.25;;;6.20;94.60;;;;;;4996477;28;20123;-76
2021/12/17 13:00:17;;;;;;;11.85;10.13;;;6.20;94.60;;;;;;4994391;28;20505;-76
2021/12/17 13:02:48;;;;;;;11.75;9.85;;;6.20;94.60;;;;;;4994098;28;20069;-76
2021/12/17 13:05:15;;;;;;;11.32;10.13;;;6.20;94.50;;;;;;5006566;28;20500;-76
2021/12/17 13:07:43;;;;;;;11.32;10.13;;;6.20;94.50;;;;;;5004925;28;20053;-76
2021/12/17 13:10:13;;;;;;;12.30;10.30;;;6.30;94.50;;;;;;4998551;28;20049;-76
2021/12/17 13:12:41;;;;;;;12.38;10.73;;;6.30;94.50;;;;;;5004532;28;20053;-76
2021/12/17 13:15:18;;;;;;;11.65;10.45;;;6.30;94.50;;;;;;5002667;28;20050;-76
2021/12/17 13:21:03;;;;;;;12.85;10.93;;;6.30;94.60;;;;;;4998468;28;20052;-76
2021/12/17 13:23:33;;;;;;;12.00;10.70;;;6.30;94.90;;;;;;4997119;28;20054;-76
2021/12/17 13:26:05;;;;;;;12.18;10.57;;;6.30;94.60;;;;;;4998260;28;20050;-76
2021/12/17 13:28:53;;;;;;;12.23;10.98;;;6.30;94.70;;;;;;5004931;28;20054;-77
2021/12/17 13:31:38;;;;;;;;;;;6.30;94.70;;;;;;4997646;28;20056;-76
2021/12/17 13:34:12;;;;;;;11.40;10.20;;;6.30;94.70;;;;;;4996586;28;19935;-76
2021/12/17 13:36:51;;;;;;;12.30;10.35;;;6.30;94.60;;;;;;4996362;28;20050;-76
2021/12/17 13:39:18;;;;;;;12.48;10.43;;;6.40;94.70;;;;;;4996679;28;20056;-76
2021/12/17 13:41:46;;;;;;;11.88;10.40;;;6.40;94.70;;;;;;4993479;28;20140;-77
2021/12/17 13:44:28;;;;;;;11.63;10.43;;;6.40;94.70;;;;;;5004399;28;20054;-76
2021/12/17 13:47:21;;;;;;;11.48;10.25;;;6.40;94.70;;;;;;4989586;28;20515;-76
2021/12/17 13:49:52;;;;;;;10.88;9.77;;;6.40;94.70;;;;;;4998864;28;20057;-76
2021/12/17 13:52:22;;;;;;;10.80;9.70;;;6.40;94.70;;;;;;4994305;28;20257;-76
2021/12/17 13:54:50;;;;;;;11.50;10.30;;;6.40;94.70;;;;;;4994327;28;20047;-76
2021/12/17 13:57:19;;;;;;;10.93;9.82;;;6.40;94.70;;;;;;4997214;28;20647;-76
2021/12/17 13:59:47;;;;;;;11.40;10.02;;;6.40;94.70;;;;;;4995630;28;20061;-76
2021/12/17 14:02:15;;;;;;;10.90;9.80;;;6.50;94.70;;;;;;4998451;28;20112;-76
2021/12/17 14:04:43;;;;;;;10.80;9.70;;;6.50;94.60;;;;;;5002251;28;20054;-76
2021/12/17 14:07:12;;;;;;;10.55;9.43;;;6.50;94.60;;;;;;5000312;28;20290;-76
2021/12/17 14:09:39;;;;;;;9.70;8.70;;;6.50;94.60;;;;;;5004461;28;20516;-76
2021/12/17 14:12:10;;;;;;;10.50;9.40;;;6.50;94.50;;;;;;5001828;28;20049;-76
2021/12/17 14:14:37;;;;;;;10.80;9.07;;;6.50;94.50;;;;;;5008065;28;20528;-76
2021/12/17 14:17:08;;;;;;;10.23;9.07;;;6.60;94.50;;;;;;5007075;28;20111;-77
2021/12/17 14:19:41;;;;;;;9.68;8.77;;;6.60;94.50;;;;;;5000496;28;20060;-77
2021/12/17 14:22:27;;;;;;;9.95;8.95;;;6.60;94.40;;;;;;5002324;28;20108;-76
2021/12/17 14:24:56;;;;;;;10.02;9.07;;;6.60;94.40;;;;;;5002874;28;20080;-79
2021/12/17 14:27:22;;;;;;;10.60;9.50;;;6.60;94.40;;;;;;5005913;28;20057;-78
2021/12/17 14:30:02;;;;;;;10.30;9.10;;;6.60;94.40;;;;;;5003157;28;20128;-79
2021/12/17 14:32:29;;;;;;;9.57;8.63;;;6.60;94.40;;;;;;4999693;28;20056;-78
2021/12/17 14:34:56;;;;;;;10.07;9.07;;;6.60;94.40;;;;;;5002132;28;20131;-78
2021/12/17 14:37:24;;;;;;;9.68;8.68;;;6.60;94.30;;;;;;5004525;28;20054;-78
2021/12/17 14:39:53;;;;;;;9.00;8.10;;;6.60;94.40;;;;;;5002301;28;20054;-78
2021/12/17 14:42:30;;;;;;;10.05;9.05;;;6.60;94.40;;;;;;4997725;28;20153;-78
2021/12/17 14:45:04;;;;;;;9.13;8.30;;;6.60;94.30;;;;;;5005440;28;20311;-78
2021/12/17 14:47:36;;;;;;;9.15;8.25;;;6.60;94.30;;;;;;5000834;28;20517;-78
2021/12/17 15:01:15;;;;;;;9.20;7.78;;;6.60;94.40;;;;;;5001015;28;20133;-78
2021/12/17 15:03:42;;;;;;;9.13;8.20;;;6.60;94.40;;;;;;5003236;28;20054;-78
2021/12/17 15:06:11;;;;;;;9.80;8.70;;;6.60;94.40;;;;;;5003255;28;20053;-78
2021/12/17 15:08:39;;;;;;;8.98;8.07;;;6.60;94.40;;;;;;4998024;28;20133;-78
2021/12/17 15:11:15;;;;;;;8.98;8.13;;;6.60;94.70;;;;;;5005737;28;20261;-78
2021/12/17 15:13:42;;;;;;;8.80;7.97;;;6.60;94.40;;;;;;4998487;28;20065;-78
2021/12/17 15:16:09;;;;;;;10.02;8.57;;;6.60;94.40;;;;;;4994734;28;20055;-78
2021/12/17 15:18:37;;;;;;;9.57;8.60;;;6.60;94.40;;;;;;5001929;28;20064;-78